Terminal Aerodrome Forecast
Issued by NWS

Home | Current Version | Previous Version | Graphics & Text | Print | Product List | Glossary On
Versions: 1 2 3 4 5 6 7 8 9 10 11 12 13 14 15 16 17 18 19 20 21 22 23 24 25 26 27 28 29 30 31 32 33 34 35 36 37 38 39
000
FTUS43 KGRB 251334 AAA
TAFRHI
TAF AMD
KRHI 251334Z 2514/2612 22009KT P6SM SCT040 BKN100
      TEMPO 2514/2517 -SHRA
     FM251700 23011G17KT P6SM SCT040 BKN080
     FM252000 23011G17KT P6SM VCSH SCT035 OVC060
      TEMPO 2520/2524 3SM +TSRA BKN025CB
     FM260000 23008KT P6SM VCSH SCT040 BKN080
     FM260800 25004KT 5SM BR SCT009 OVC018
      TEMPO 2608/2612 2SM BR BKN009=

USA.gov is the U.S. government's official web portal to all federal, state and local government web resources and services.